sensor_id;sensor_type;location;lat;lon;timestamp;pressure;altitude;pressure_sealevel;temperature;humidity
45078;BME280;60508;42.622;25.416;2023-03-04T00:01:45;96837.59;;;5.80;88.98
45078;BME280;60508;42.622;25.416;2023-03-04T00:04:11;96834.91;;;5.80;89.22
45078;BME280;60508;42.622;25.416;2023-03-04T00:06:37;96826.50;;;5.83;88.23
45078;BME280;60508;42.622;25.416;2023-03-04T00:09:03;96819.53;;;5.82;87.71
45078;BME280;60508;42.622;25.416;2023-03-04T00:11:30;96818.13;;;5.80;88.01
45078;BME280;60508;42.622;25.416;2023-03-04T00:13:56;96814.22;;;5.76;87.87
45078;BME280;60508;42.622;25.416;2023-03-04T00:16:23;96814.53;;;5.47;88.80
45078;BME280;60508;42.622;25.416;2023-03-04T00:18:56;96820.25;;;5.58;88.57
45078;BME280;60508;42.622;25.416;2023-03-04T00:21:22;96830.88;;;5.64;88.50
45078;BME280;60508;42.622;25.416;2023-03-04T00:23:49;96823.69;;;5.72;88.08
45078;BME280;60508;42.622;25.416;2023-03-04T00:26:16;96829.44;;;5.69;87.75
45078;BME280;60508;42.622;25.416;2023-03-04T00:28:43;96822.44;;;5.74;88.07
45078;BME280;60508;42.622;25.416;2023-03-04T00:31:09;96823.63;;;5.85;87.24
45078;BME280;60508;42.622;25.416;2023-03-04T00:33:36;96821.38;;;5.82;86.63
45078;BME280;60508;42.622;25.416;2023-03-04T00:36:02;96822.81;;;5.78;86.55
45078;BME280;60508;42.622;25.416;2023-03-04T00:38:29;96818.19;;;5.53;87.20
45078;BME280;60508;42.622;25.416;2023-03-04T00:40:55;96803.44;;;5.51;87.81
45078;BME280;60508;42.622;25.416;2023-03-04T00:43:22;96808.56;;;5.52;88.57
45078;BME280;60508;42.622;25.416;2023-03-04T00:45:47;96807.75;;;5.52;88.57
45078;BME280;60508;42.622;25.416;2023-03-04T00:48:14;96817.38;;;5.59;88.65
45078;BME280;60508;42.622;25.416;2023-03-04T00:50:42;96805.06;;;5.58;88.72
45078;BME280;60508;42.622;25.416;2023-03-04T00:53:09;96808.13;;;5.69;88.89
45078;BME280;60508;42.622;25.416;2023-03-04T00:55:35;96811.13;;;5.79;88.79
45078;BME280;60508;42.622;25.416;2023-03-04T00:58:01;96795.72;;;5.81;88.16
45078;BME280;60508;42.622;25.416;2023-03-04T01:00:28;96804.53;;;5.88;87.18
45078;BME280;60508;42.622;25.416;2023-03-04T01:02:54;96806.97;;;5.96;86.23
45078;BME280;60508;42.622;25.416;2023-03-04T01:05:20;96799.75;;;6.03;86.11
45078;BME280;60508;42.622;25.416;2023-03-04T01:07:47;96802.38;;;6.10;85.96
45078;BME280;60508;42.622;25.416;2023-03-04T01:10:14;96798.25;;;6.14;85.39
45078;BME280;60508;42.622;25.416;2023-03-04T01:12:41;96806.72;;;6.05;86.19
45078;BME280;60508;42.622;25.416;2023-03-04T01:15:09;96799.50;;;6.12;85.54
45078;BME280;60508;42.622;25.416;2023-03-04T01:17:35;96796.34;;;6.21;85.17
45078;BME280;60508;42.622;25.416;2023-03-04T01:20:03;96798.75;;;6.36;84.24
45078;BME280;60508;42.622;25.416;2023-03-04T01:22:30;96800.97;;;6.39;84.07
45078;BME280;60508;42.622;25.416;2023-03-04T01:24:57;96789.84;;;6.43;84.05
45078;BME280;60508;42.622;25.416;2023-03-04T01:27:22;96788.44;;;6.40;83.91
45078;BME280;60508;42.622;25.416;2023-03-04T01:29:49;96791.34;;;6.38;83.95
45078;BME280;60508;42.622;25.416;2023-03-04T01:32:16;96789.69;;;6.37;83.91
45078;BME280;60508;42.622;25.416;2023-03-04T01:34:42;96798.56;;;6.31;84.38
45078;BME280;60508;42.622;25.416;2023-03-04T01:37:08;96789.31;;;6.34;84.62
45078;BME280;60508;42.622;25.416;2023-03-04T01:39:34;96785.84;;;6.33;84.56
45078;BME280;60508;42.622;25.416;2023-03-04T01:42:00;96791.44;;;6.25;85.03
45078;BME280;60508;42.622;25.416;2023-03-04T01:44:27;96786.03;;;6.32;84.75
45078;BME280;60508;42.622;25.416;2023-03-04T01:46:54;96787.44;;;6.34;84.73
45078;BME280;60508;42.622;25.416;2023-03-04T01:49:21;96781.50;;;6.32;84.83
45078;BME280;60508;42.622;25.416;2023-03-04T01:51:51;96787.72;;;6.26;84.92
45078;BME280;60508;42.622;25.416;2023-03-04T01:54:21;96781.09;;;6.35;84.16
45078;BME280;60508;42.622;25.416;2023-03-04T01:56:49;96779.19;;;6.43;83.88
45078;BME280;60508;42.622;25.416;2023-03-04T01:59:20;96782.38;;;6.26;83.97
45078;BME280;60508;42.622;25.416;2023-03-04T02:01:51;96786.22;;;6.37;84.25
45078;BME280;60508;42.622;25.416;2023-03-04T02:04:20;96774.59;;;6.25;84.27
45078;BME280;60508;42.622;25.416;2023-03-04T02:06:47;96778.72;;;6.20;84.44
45078;BME280;60508;42.622;25.416;2023-03-04T02:09:15;96778.09;;;6.18;84.88
45078;BME280;60508;42.622;25.416;2023-03-04T02:11:43;96777.22;;;5.99;85.91
45078;BME280;60508;42.622;25.416;2023-03-04T02:14:11;96776.78;;;5.96;86.70
45078;BME280;60508;42.622;25.416;2023-03-04T02:16:38;96782.72;;;6.05;85.89
45078;BME280;60508;42.622;25.416;2023-03-04T02:19:06;96778.88;;;5.87;86.66
45078;BME280;60508;42.622;25.416;2023-03-04T02:21:35;96778.03;;;5.93;86.51
45078;BME280;60508;42.622;25.416;2023-03-04T02:26:44;96782.50;;;5.61;87.86
45078;BME280;60508;42.622;25.416;2023-03-04T02:29:13;96785.78;;;5.63;88.22
45078;BME280;60508;42.622;25.416;2023-03-04T02:31:48;96783.28;;;5.68;88.25
45078;BME280;60508;42.622;25.416;2023-03-04T02:34:22;96781.38;;;5.82;87.19
45078;BME280;60508;42.622;25.416;2023-03-04T02:36:50;96783.63;;;5.85;86.27
45078;BME280;60508;42.622;25.416;2023-03-04T02:41:47;96786.16;;;5.66;87.19
45078;BME280;60508;42.622;25.416;2023-03-04T02:44:21;96805.25;;;5.57;87.78
45078;BME280;60508;42.622;25.416;2023-03-04T02:46:48;96796.03;;;5.59;88.00
45078;BME280;60508;42.622;25.416;2023-03-04T02:49:15;96788.44;;;5.63;87.59
45078;BME280;60508;42.622;25.416;2023-03-04T02:51:43;96786.59;;;5.63;87.98
45078;BME280;60508;42.622;25.416;2023-03-04T02:54:17;96787.41;;;5.64;87.78
45078;BME280;60508;42.622;25.416;2023-03-04T02:56:52;96780.84;;;5.60;87.82
45078;BME280;60508;42.622;25.416;2023-03-04T02:59:21;96785.94;;;5.68;88.17
45078;BME280;60508;42.622;25.416;2023-03-04T03:01:48;96780.78;;;5.73;87.53
45078;BME280;60508;42.622;25.416;2023-03-04T03:04:14;96789.22;;;5.77;87.51
45078;BME280;60508;42.622;25.416;2023-03-04T03:06:42;96781.63;;;5.74;87.02
45078;BME280;60508;42.622;25.416;2023-03-04T03:09:08;96790.47;;;5.67;87.73
45078;BME280;60508;42.622;25.416;2023-03-04T03:11:34;96775.06;;;5.70;87.78
45078;BME280;60508;42.622;25.416;2023-03-04T03:14:00;96771.38;;;5.71;87.44
45078;BME280;60508;42.622;25.416;2023-03-04T03:16:26;96788.38;;;5.83;87.29
45078;BME280;60508;42.622;25.416;2023-03-04T03:18:52;96785.03;;;5.88;86.48
45078;BME280;60508;42.622;25.416;2023-03-04T03:21:19;96778.34;;;5.78;86.55
45078;BME280;60508;42.622;25.416;2023-03-04T03:23:45;96788.13;;;5.84;86.71
45078;BME280;60508;42.622;25.416;2023-03-04T03:26:12;96774.72;;;6.05;84.95
45078;BME280;60508;42.622;25.416;2023-03-04T03:28:39;96783.38;;;6.00;84.75
45078;BME280;60508;42.622;25.416;2023-03-04T03:31:05;96783.03;;;5.83;84.82
45078;BME280;60508;42.622;25.416;2023-03-04T03:33:31;96778.75;;;5.75;85.60
45078;BME280;60508;42.622;25.416;2023-03-04T03:35:57;96789.38;;;5.82;85.90
45078;BME280;60508;42.622;25.416;2023-03-04T03:38:23;96787.69;;;5.88;85.53
45078;BME280;60508;42.622;25.416;2023-03-04T03:40:49;96785.22;;;5.99;85.05
45078;BME280;60508;42.622;25.416;2023-03-04T03:43:15;96792.13;;;6.07;84.03
45078;BME280;60508;42.622;25.416;2023-03-04T03:45:41;96801.56;;;6.10;83.59
45078;BME280;60508;42.622;25.416;2023-03-04T03:48:07;96801.81;;;6.01;83.89
45078;BME280;60508;42.622;25.416;2023-03-04T03:50:33;96811.91;;;5.93;84.27
45078;BME280;60508;42.622;25.416;2023-03-04T03:53:00;96814.56;;;5.99;84.15
45078;BME280;60508;42.622;25.416;2023-03-04T03:55:27;96800.03;;;5.82;84.47
45078;BME280;60508;42.622;25.416;2023-03-04T03:57:52;96801.69;;;5.76;85.58
45078;BME280;60508;42.622;25.416;2023-03-04T04:00:19;96808.44;;;5.85;84.95
45078;BME280;60508;42.622;25.416;2023-03-04T04:02:45;96798.41;;;5.81;85.08
45078;BME280;60508;42.622;25.416;2023-03-04T04:05:11;96807.44;;;5.80;85.10
45078;BME280;60508;42.622;25.416;2023-03-04T04:07:37;96794.78;;;5.69;85.31
45078;BME280;60508;42.622;25.416;2023-03-04T04:10:04;96800.50;;;5.72;85.75
45078;BME280;60508;42.622;25.416;2023-03-04T04:12:31;96796.56;;;5.75;85.84
45078;BME280;60508;42.622;25.416;2023-03-04T04:14:57;96803.53;;;5.82;86.06
45078;BME280;60508;42.622;25.416;2023-03-04T04:17:23;96797.97;;;5.84;86.02
45078;BME280;60508;42.622;25.416;2023-03-04T04:19:48;96805.03;;;5.65;86.25
45078;BME280;60508;42.622;25.416;2023-03-04T04:22:17;96805.03;;;5.65;86.91
45078;BME280;60508;42.622;25.416;2023-03-04T04:24:44;96799.91;;;5.70;86.68
45078;BME280;60508;42.622;25.416;2023-03-04T04:27:10;96795.44;;;5.51;86.79
45078;BME280;60508;42.622;25.416;2023-03-04T04:29:36;96795.84;;;5.61;86.36
45078;BME280;60508;42.622;25.416;2023-03-04T04:32:03;96793.34;;;5.66;86.02
45078;BME280;60508;42.622;25.416;2023-03-04T04:34:29;96803.97;;;5.73;85.92
45078;BME280;60508;42.622;25.416;2023-03-04T04:36:54;96799.66;;;5.78;85.72
45078;BME280;60508;42.622;25.416;2023-03-04T04:39:21;96794.53;;;5.77;85.58
45078;BME280;60508;42.622;25.416;2023-03-04T04:41:46;96795.81;;;5.67;86.01
45078;BME280;60508;42.622;25.416;2023-03-04T04:44:13;96797.94;;;5.45;86.74
45078;BME280;60508;42.622;25.416;2023-03-04T04:46:40;96797.72;;;5.47;87.00
45078;BME280;60508;42.622;25.416;2023-03-04T04:49:06;96801.00;;;5.42;87.69
45078;BME280;60508;42.622;25.416;2023-03-04T04:51:33;96815.75;;;5.52;88.11
45078;BME280;60508;42.622;25.416;2023-03-04T04:54:00;96809.72;;;5.70;86.96
45078;BME280;60508;42.622;25.416;2023-03-04T04:56:27;96812.06;;;5.53;87.42
45078;BME280;60508;42.622;25.416;2023-03-04T04:58:55;96821.06;;;5.52;87.45
45078;BME280;60508;42.622;25.416;2023-03-04T05:01:22;96821.22;;;5.70;87.30
45078;BME280;60508;42.622;25.416;2023-03-04T05:03:48;96823.25;;;5.68;87.43
45078;BME280;60508;42.622;25.416;2023-03-04T05:06:15;96825.31;;;5.73;87.53
45078;BME280;60508;42.622;25.416;2023-03-04T05:08:41;96815.50;;;5.60;87.60
45078;BME280;60508;42.622;25.416;2023-03-04T05:11:07;96825.13;;;5.67;87.71
45078;BME280;60508;42.622;25.416;2023-03-04T05:13:33;96824.09;;;5.69;87.80
45078;BME280;60508;42.622;25.416;2023-03-04T05:16:00;96827.97;;;5.73;87.89
45078;BME280;60508;42.622;25.416;2023-03-04T05:18:26;96824.91;;;5.69;87.55
45078;BME280;60508;42.622;25.416;2023-03-04T05:20:54;96821.72;;;5.92;86.75
45078;BME280;60508;42.622;25.416;2023-03-04T05:23:20;96811.22;;;6.11;85.46
45078;BME280;60508;42.622;25.416;2023-03-04T05:25:47;96818.38;;;6.17;84.47
45078;BME280;60508;42.622;25.416;2023-03-04T05:28:13;96818.59;;;6.15;84.75
45078;BME280;60508;42.622;25.416;2023-03-04T05:30:42;96817.47;;;6.23;84.48
45078;BME280;60508;42.622;25.416;2023-03-04T05:33:09;96810.13;;;6.18;84.42
45078;BME280;60508;42.622;25.416;2023-03-04T05:35:36;96817.53;;;6.16;84.62
45078;BME280;60508;42.622;25.416;2023-03-04T05:38:04;96808.28;;;6.19;84.42
45078;BME280;60508;42.622;25.416;2023-03-04T05:40:31;96821.69;;;6.12;84.52
45078;BME280;60508;42.622;25.416;2023-03-04T05:42:58;96829.09;;;6.03;84.63
45078;BME280;60508;42.622;25.416;2023-03-04T05:45:24;96827.69;;;5.88;85.65
45078;BME280;60508;42.622;25.416;2023-03-04T05:47:51;96831.19;;;5.88;86.07
45078;BME280;60508;42.622;25.416;2023-03-04T05:50:19;96825.00;;;6.01;85.93
45078;BME280;60508;42.622;25.416;2023-03-04T05:52:45;96825.38;;;6.11;85.68
45078;BME280;60508;42.622;25.416;2023-03-04T05:55:11;96821.41;;;6.20;84.97
45078;BME280;60508;42.622;25.416;2023-03-04T05:57:37;96824.25;;;6.26;84.87
45078;BME280;60508;42.622;25.416;2023-03-04T06:00:05;96825.44;;;6.30;84.54
45078;BME280;60508;42.622;25.416;2023-03-04T06:02:39;96832.34;;;6.44;83.91
45078;BME280;60508;42.622;25.416;2023-03-04T06:05:05;96832.13;;;6.46;83.88
45078;BME280;60508;42.622;25.416;2023-03-04T06:07:31;96828.59;;;6.52;83.71
45078;BME280;60508;42.622;25.416;2023-03-04T06:09:57;96823.41;;;6.64;83.31
45078;BME280;60508;42.622;25.416;2023-03-04T06:12:24;96825.13;;;6.76;82.76
45078;BME280;60508;42.622;25.416;2023-03-04T06:14:51;96829.31;;;6.91;82.12
45078;BME280;60508;42.622;25.416;2023-03-04T06:17:17;96832.41;;;6.88;81.47
45078;BME280;60508;42.622;25.416;2023-03-04T06:19:43;96837.72;;;6.94;81.00
45078;BME280;60508;42.622;25.416;2023-03-04T06:22:10;96837.72;;;6.94;80.54
45078;BME280;60508;42.622;25.416;2023-03-04T06:24:36;96838.38;;;6.90;80.84
45078;BME280;60508;42.622;25.416;2023-03-04T06:27:02;96846.13;;;6.98;81.19
45078;BME280;60508;42.622;25.416;2023-03-04T06:29:28;96846.66;;;7.07;80.36
45078;BME280;60508;42.622;25.416;2023-03-04T06:31:54;96851.41;;;7.05;80.06
45078;BME280;60508;42.622;25.416;2023-03-04T06:34:20;96850.31;;;7.12;79.97
45078;BME280;60508;42.622;25.416;2023-03-04T06:36:47;96855.53;;;7.26;79.99
45078;BME280;60508;42.622;25.416;2023-03-04T06:39:13;96854.88;;;7.30;79.06
45078;BME280;60508;42.622;25.416;2023-03-04T06:41:39;96849.16;;;7.45;78.11
45078;BME280;60508;42.622;25.416;2023-03-04T06:44:06;96857.78;;;7.66;77.02
45078;BME280;60508;42.622;25.416;2023-03-04T06:46:33;96860.16;;;7.74;76.13
45078;BME280;60508;42.622;25.416;2023-03-04T06:48:59;96856.97;;;7.84;75.68
45078;BME280;60508;42.622;25.416;2023-03-04T06:51:25;96853.81;;;8.05;75.16
45078;BME280;60508;42.622;25.416;2023-03-04T06:53:52;96871.25;;;8.27;74.21
45078;BME280;60508;42.622;25.416;2023-03-04T06:56:18;96873.69;;;8.47;73.46
45078;BME280;60508;42.622;25.416;2023-03-04T06:58:44;96868.66;;;8.69;72.57
45078;BME280;60508;42.622;25.416;2023-03-04T07:01:23;96881.63;;;8.53;71.94
45078;BME280;60508;42.622;25.416;2023-03-04T07:03:51;96875.78;;;8.26;73.64
45078;BME280;60508;42.622;25.416;2023-03-04T07:06:20;96864.69;;;8.11;74.20
45078;BME280;60508;42.622;25.416;2023-03-04T07:08:47;96851.56;;;8.21;74.60
45078;BME280;60508;42.622;25.416;2023-03-04T07:11:14;96856.75;;;8.34;73.71
45078;BME280;60508;42.622;25.416;2023-03-04T07:13:40;96850.63;;;8.46;73.76
45078;BME280;60508;42.622;25.416;2023-03-04T07:16:08;96859.06;;;8.61;73.29
45078;BME280;60508;42.622;25.416;2023-03-04T07:18:36;96855.50;;;8.67;73.04
45078;BME280;60508;42.622;25.416;2023-03-04T07:21:04;96863.53;;;8.67;72.53
45078;BME280;60508;42.622;25.416;2023-03-04T07:23:30;96862.78;;;8.60;73.29
45078;BME280;60508;42.622;25.416;2023-03-04T07:25:56;96856.28;;;8.56;74.21
45078;BME280;60508;42.622;25.416;2023-03-04T07:28:25;96870.66;;;8.43;74.51
45078;BME280;60508;42.622;25.416;2023-03-04T07:30:51;96857.06;;;8.45;75.60
45078;BME280;60508;42.622;25.416;2023-03-04T07:33:17;96847.91;;;8.64;74.97
45078;BME280;60508;42.622;25.416;2023-03-04T07:35:43;96844.22;;;8.77;74.13
45078;BME280;60508;42.622;25.416;2023-03-04T07:38:10;96849.81;;;8.75;74.14
45078;BME280;60508;42.622;25.416;2023-03-04T07:40:36;96846.31;;;8.87;74.91
45078;BME280;60508;42.622;25.416;2023-03-04T07:43:02;96851.56;;;8.93;74.15
45078;BME280;60508;42.622;25.416;2023-03-04T07:45:29;96843.19;;;8.90;74.07
45078;BME280;60508;42.622;25.416;2023-03-04T07:47:57;96855.16;;;8.87;73.84
45078;BME280;60508;42.622;25.416;2023-03-04T07:50:23;96840.28;;;8.91;74.05
45078;BME280;60508;42.622;25.416;2023-03-04T07:52:49;96836.88;;;8.96;74.02
45078;BME280;60508;42.622;25.416;2023-03-04T07:55:18;96839.09;;;8.99;73.73
45078;BME280;60508;42.622;25.416;2023-03-04T07:57:46;96838.75;;;8.95;73.32
45078;BME280;60508;42.622;25.416;2023-03-04T08:00:14;96847.50;;;9.03;73.27
45078;BME280;60508;42.622;25.416;2023-03-04T08:02:41;96837.94;;;9.07;72.86
45078;BME280;60508;42.622;25.416;2023-03-04T08:05:07;96846.56;;;9.09;72.99
45078;BME280;60508;42.622;25.416;2023-03-04T08:07:33;96833.03;;;9.16;72.80
45078;BME280;60508;42.622;25.416;2023-03-04T08:10:00;96849.59;;;9.36;72.67
45078;BME280;60508;42.622;25.416;2023-03-04T08:12:26;96833.38;;;9.43;71.64
45078;BME280;60508;42.622;25.416;2023-03-04T08:14:53;96830.84;;;9.48;71.30
45078;BME280;60508;42.622;25.416;2023-03-04T08:17:19;96842.59;;;9.47;70.91
45078;BME280;60508;42.622;25.416;2023-03-04T08:19:46;96844.03;;;9.49;71.51
45078;BME280;60508;42.622;25.416;2023-03-04T08:22:12;96847.84;;;9.54;71.42
45078;BME280;60508;42.622;25.416;2023-03-04T08:24:38;96828.38;;;9.58;71.09
45078;BME280;60508;42.622;25.416;2023-03-04T08:27:04;96851.03;;;9.91;70.67
45078;BME280;60508;42.622;25.416;2023-03-04T08:29:31;96848.09;;;10.04;69.34
45078;BME280;60508;42.622;25.416;2023-03-04T08:31:56;96850.28;;;10.08;68.68
45078;BME280;60508;42.622;25.416;2023-03-04T08:34:25;96847.03;;;10.17;69.42
45078;BME280;60508;42.622;25.416;2023-03-04T08:36:52;96851.13;;;10.49;68.55
45078;BME280;60508;42.622;25.416;2023-03-04T08:39:19;96838.94;;;10.75;66.95
45078;BME280;60508;42.622;25.416;2023-03-04T08:41:46;96845.34;;;10.57;66.24
45078;BME280;60508;42.622;25.416;2023-03-04T08:44:14;96841.47;;;10.82;64.70
45078;BME280;60508;42.622;25.416;2023-03-04T08:46:42;96845.16;;;11.09;63.22
45078;BME280;60508;42.622;25.416;2023-03-04T08:49:10;96836.69;;;10.84;63.90
45078;BME280;60508;42.622;25.416;2023-03-04T08:51:36;96842.28;;;11.33;63.19
45078;BME280;60508;42.622;25.416;2023-03-04T08:54:03;96847.25;;;11.24;61.96
45078;BME280;60508;42.622;25.416;2023-03-04T08:56:31;96828.25;;;11.31;62.21
45078;BME280;60508;42.622;25.416;2023-03-04T08:58:57;96825.47;;;12.04;60.42
45078;BME280;60508;42.622;25.416;2023-03-04T09:01:24;96828.69;;;13.15;57.62
45078;BME280;60508;42.622;25.416;2023-03-04T09:03:50;96826.78;;;14.06;54.92
45078;BME280;60508;42.622;25.416;2023-03-04T09:06:17;96829.69;;;13.89;51.28
45078;BME280;60508;42.622;25.416;2023-03-04T09:08:44;96826.06;;;14.41;51.93
45078;BME280;60508;42.622;25.416;2023-03-04T09:11:11;96831.97;;;16.58;46.60
45078;BME280;60508;42.622;25.416;2023-03-04T09:13:37;96830.06;;;16.58;44.25
45078;BME280;60508;42.622;25.416;2023-03-04T09:16:11;96825.47;;;13.56;47.65
45078;BME280;60508;42.622;25.416;2023-03-04T09:18:39;96820.28;;;13.44;52.08
45078;BME280;60508;42.622;25.416;2023-03-04T09:21:06;96823.09;;;12.89;54.31
45078;BME280;60508;42.622;25.416;2023-03-04T09:23:35;96827.75;;;12.17;55.18
45078;BME280;60508;42.622;25.416;2023-03-04T09:26:11;96818.16;;;11.60;57.61
45078;BME280;60508;42.622;25.416;2023-03-04T09:28:37;96817.84;;;11.96;58.02
45078;BME280;60508;42.622;25.416;2023-03-04T09:31:10;96819.06;;;10.76;59.61
45078;BME280;60508;42.622;25.416;2023-03-04T09:33:36;96815.38;;;11.33;60.08
45078;BME280;60508;42.622;25.416;2023-03-04T09:36:04;96816.94;;;11.12;59.32
45078;BME280;60508;42.622;25.416;2023-03-04T09:38:32;96813.03;;;11.20;60.33
45078;BME280;60508;42.622;25.416;2023-03-04T09:41:05;96810.03;;;11.55;60.62
45078;BME280;60508;42.622;25.416;2023-03-04T09:43:32;96809.97;;;11.72;59.07
45078;BME280;60508;42.622;25.416;2023-03-04T09:46:02;96805.69;;;11.54;59.11
45078;BME280;60508;42.622;25.416;2023-03-04T09:48:38;96806.84;;;11.80;59.08
45078;BME280;60508;42.622;25.416;2023-03-04T09:51:10;96809.66;;;11.91;57.05
45078;BME280;60508;42.622;25.416;2023-03-04T09:54:05;96800.28;;;11.93;57.33
45078;BME280;60508;42.622;25.416;2023-03-04T09:56:37;96799.53;;;12.20;56.51
45078;BME280;60508;42.622;25.416;2023-03-04T09:59:29;96799.28;;;12.49;54.65
45078;BME280;60508;42.622;25.416;2023-03-04T10:01:58;96795.53;;;12.22;55.52
45078;BME280;60508;42.622;25.416;2023-03-04T10:04:33;96788.53;;;12.54;55.50
45078;BME280;60508;42.622;25.416;2023-03-04T10:07:02;96782.22;;;12.70;55.42
45078;BME280;60508;42.622;25.416;2023-03-04T10:09:50;96775.00;;;13.19;53.89
45078;BME280;60508;42.622;25.416;2023-03-04T10:12:22;96773.25;;;13.87;52.81
45078;BME280;60508;42.622;25.416;2023-03-04T10:14:53;96774.44;;;14.28;50.70
45078;BME280;60508;42.622;25.416;2023-03-04T10:17:39;96776.41;;;14.99;48.19
45078;BME280;60508;42.622;25.416;2023-03-04T10:22:47;96767.75;;;16.88;44.50
45078;BME280;60508;42.622;25.416;2023-03-04T10:28:15;96759.75;;;16.67;43.24
45078;BME280;60508;42.622;25.416;2023-03-04T10:33:29;96758.53;;;14.93;46.41
45078;BME280;60508;42.622;25.416;2023-03-04T10:38:41;96752.00;;;14.58;46.74
45078;BME280;60508;42.622;25.416;2023-03-04T10:41:15;96746.59;;;14.48;48.00
45078;BME280;60508;42.622;25.416;2023-03-04T10:43:42;96732.66;;;13.19;50.94
45078;BME280;60508;42.622;25.416;2023-03-04T10:46:12;96738.78;;;13.09;49.47
45078;BME280;60508;42.622;25.416;2023-03-04T10:48:42;96730.50;;;13.16;51.71
45078;BME280;60508;42.622;25.416;2023-03-04T10:51:11;96731.81;;;13.13;51.96
45078;BME280;60508;42.622;25.416;2023-03-04T10:53:40;96721.25;;;13.49;50.82
45078;BME280;60508;42.622;25.416;2023-03-04T10:56:30;96719.75;;;13.79;50.37
45078;BME280;60508;42.622;25.416;2023-03-04T11:01:52;96707.38;;;13.99;48.28
45078;BME280;60508;42.622;25.416;2023-03-04T11:04:19;96695.47;;;13.95;48.22
45078;BME280;60508;42.622;25.416;2023-03-04T11:06:47;96714.50;;;13.52;48.45
45078;BME280;60508;42.622;25.416;2023-03-04T11:09:26;96701.81;;;12.62;51.77
45078;BME280;60508;42.622;25.416;2023-03-04T11:12:01;96695.84;;;12.97;52.16
45078;BME280;60508;42.622;25.416;2023-03-04T11:14:40;96683.94;;;12.93;52.73
45078;BME280;60508;42.622;25.416;2023-03-04T11:17:26;96685.66;;;12.62;53.51
45078;BME280;60508;42.622;25.416;2023-03-04T11:22:26;96690.25;;;12.29;56.37
45078;BME280;60508;42.622;25.416;2023-03-04T11:24:57;96680.06;;;12.36;56.40
45078;BME280;60508;42.622;25.416;2023-03-04T11:27:45;96675.47;;;12.37;56.57
45078;BME280;60508;42.622;25.416;2023-03-04T11:33:13;96671.38;;;11.75;59.11
45078;BME280;60508;42.622;25.416;2023-03-04T11:38:35;96656.28;;;11.96;59.18
45078;BME280;60508;42.622;25.416;2023-03-04T11:41:13;96662.72;;;11.95;59.14
45078;BME280;60508;42.622;25.416;2023-03-04T11:43:44;96660.16;;;11.83;59.87
45078;BME280;60508;42.622;25.416;2023-03-04T11:57:43;96644.69;;;11.68;61.34
45078;BME280;60508;42.622;25.416;2023-03-04T12:11:05;96645.44;;;12.18;58.68
45078;BME280;60508;42.622;25.416;2023-03-04T12:16:25;96634.78;;;12.01;60.38
45078;BME280;60508;42.622;25.416;2023-03-04T12:27:23;96620.81;;;12.84;57.35
45078;BME280;60508;42.622;25.416;2023-03-04T12:30:02;96624.44;;;12.63;58.35
45078;BME280;60508;42.622;25.416;2023-03-04T12:32:38;96622.50;;;12.53;59.56
45078;BME280;60508;42.622;25.416;2023-03-04T12:42:00;96617.66;;;12.17;59.88
45078;BME280;60508;42.622;25.416;2023-03-04T12:44:19;96616.53;;;12.46;59.24
45078;BME280;60508;42.622;25.416;2023-03-04T12:47:08;96612.34;;;12.65;58.79
45078;BME280;60508;42.622;25.416;2023-03-04T12:55:10;96601.00;;;12.20;58.92
45078;BME280;60508;42.622;25.416;2023-03-04T12:57:37;96592.75;;;12.32;59.53
45078;BME280;60508;42.622;25.416;2023-03-04T13:00:16;96603.09;;;12.08;59.22
45078;BME280;60508;42.622;25.416;2023-03-04T13:16:40;96572.88;;;12.96;58.18
45078;BME280;60508;42.622;25.416;2023-03-04T13:22:26;96574.56;;;13.13;55.36
45078;BME280;60508;42.622;25.416;2023-03-04T13:24:53;96577.81;;;13.20;55.48
45078;BME280;60508;42.622;25.416;2023-03-04T13:35:57;96551.72;;;13.46;54.62
45078;BME280;60508;42.622;25.416;2023-03-04T13:43:45;96537.28;;;13.00;55.02
45078;BME280;60508;42.622;25.416;2023-03-04T13:51:18;96533.25;;;13.07;56.49
45078;BME280;60508;42.622;25.416;2023-03-04T13:53:53;96532.81;;;12.63;56.57
45078;BME280;60508;42.622;25.416;2023-03-04T13:58:51;96529.59;;;12.66;57.27
45078;BME280;60508;42.622;25.416;2023-03-04T14:01:27;96521.16;;;13.10;56.37
45078;BME280;60508;42.622;25.416;2023-03-04T14:03:54;96525.84;;;13.50;54.35
45078;BME280;60508;42.622;25.416;2023-03-04T14:06:29;96519.75;;;12.97;55.36
45078;BME280;60508;42.622;25.416;2023-03-04T14:08:56;96521.34;;;12.88;56.58
45078;BME280;60508;42.622;25.416;2023-03-04T14:13:57;96516.94;;;13.81;53.17
45078;BME280;60508;42.622;25.416;2023-03-04T14:16:27;96512.88;;;13.73;53.65
45078;BME280;60508;42.622;25.416;2023-03-04T14:19:05;96504.25;;;13.45;54.07
45078;BME280;60508;42.622;25.416;2023-03-04T14:21:32;96507.59;;;12.89;55.45
45078;BME280;60508;42.622;25.416;2023-03-04T14:24:10;96510.00;;;12.22;57.85
45078;BME280;60508;42.622;25.416;2023-03-04T14:26:39;96506.91;;;12.03;59.12
45078;BME280;60508;42.622;25.416;2023-03-04T14:29:27;96501.88;;;12.17;59.01
45078;BME280;60508;42.622;25.416;2023-03-04T14:31:57;96495.69;;;12.22;58.96
45078;BME280;60508;42.622;25.416;2023-03-04T14:34:29;96493.31;;;11.88;59.32
45078;BME280;60508;42.622;25.416;2023-03-04T14:37:00;96492.97;;;11.79;60.32
45078;BME280;60508;42.622;25.416;2023-03-04T14:39:30;96492.56;;;11.93;60.29
45078;BME280;60508;42.622;25.416;2023-03-04T14:42:07;96493.19;;;11.73;60.30
45078;BME280;60508;42.622;25.416;2023-03-04T14:44:48;96495.03;;;11.35;61.80
45078;BME280;60508;42.622;25.416;2023-03-04T14:47:19;96488.06;;;11.71;61.54
45078;BME280;60508;42.622;25.416;2023-03-04T14:49:48;96486.13;;;11.94;61.07
45078;BME280;60508;42.622;25.416;2023-03-04T14:52:35;96486.56;;;12.91;59.31
45078;BME280;60508;42.622;25.416;2023-03-04T14:55:25;96491.22;;;15.45;51.65
45078;BME280;60508;42.622;25.416;2023-03-04T15:00:33;96484.03;;;19.43;40.10
45078;BME280;60508;42.622;25.416;2023-03-04T15:03:19;96473.94;;;20.12;37.61